createdAt,value
2023-04-07T00:00:26.038Z,0.00
2023-04-07T00:01:25.950Z,0.00
2023-04-07T00:02:26.084Z,0.00
2023-04-07T00:03:26.125Z,0.00
2023-04-07T00:04:26.212Z,0.00
2023-04-07T00:05:25.954Z,0.00
2023-04-07T00:06:25.895Z,0.00
2023-04-07T00:07:25.888Z,0.00
2023-04-07T00:08:25.894Z,0.00
2023-04-07T00:09:25.858Z,0.00
2023-04-07T00:10:25.888Z,0.00
2023-04-07T00:11:25.838Z,0.00
2023-04-07T00:12:25.833Z,0.00
2023-04-07T00:13:25.835Z,0.00
2023-04-07T00:14:25.833Z,0.00
2023-04-07T00:15:25.805Z,0.00
2023-04-07T00:16:25.851Z,0.00
2023-04-07T00:17:25.786Z,0.00
2023-04-07T00:18:25.783Z,0.00
2023-04-07T00:19:25.768Z,0.00
2023-04-07T00:20:25.752Z,0.00
2023-04-07T00:21:25.740Z,0.00
2023-04-07T00:22:25.747Z,0.00
2023-04-07T00:23:25.727Z,0.00
2023-04-07T00:24:33.926Z,0.00
2023-04-07T00:25:25.690Z,0.00
2023-04-07T00:26:25.688Z,0.00
2023-04-07T00:27:25.672Z,0.00
2023-04-07T00:28:25.695Z,0.00
2023-04-07T00:29:25.652Z,0.00
2023-04-07T00:30:25.646Z,0.00
2023-04-07T00:31:25.703Z,0.00
2023-04-07T00:32:25.694Z,0.00
2023-04-07T00:33:25.622Z,0.00
2023-04-07T00:34:25.599Z,0.00
2023-04-07T00:35:25.616Z,0.00
2023-04-07T00:36:25.582Z,0.00
2023-04-07T00:37:25.598Z,0.00
2023-04-07T00:38:25.572Z,0.00
2023-04-07T00:39:25.544Z,0.00
2023-04-07T00:40:25.549Z,0.00
2023-04-07T00:41:25.523Z,0.00
2023-04-07T00:42:25.530Z,0.00
2023-04-07T00:43:25.531Z,0.00
2023-04-07T00:44:25.516Z,0.00
2023-04-07T00:45:25.485Z,0.00
2023-04-07T00:46:25.529Z,0.00
2023-04-07T00:47:25.516Z,0.00
2023-04-07T00:48:25.470Z,0.00
2023-04-07T00:49:25.444Z,0.00
2023-04-07T00:50:25.452Z,0.00
2023-04-07T00:51:25.422Z,0.00
2023-04-07T00:52:25.421Z,0.00
2023-04-07T00:53:25.421Z,0.00
2023-04-07T00:54:25.429Z,0.00
2023-04-07T00:55:25.386Z,0.00
2023-04-07T00:56:25.374Z,0.00
2023-04-07T00:57:25.362Z,0.00
2023-04-07T00:58:25.365Z,0.00
2023-04-07T00:59:25.338Z,0.00
2023-04-07T01:00:25.333Z,0.00
2023-04-07T01:01:25.400Z,0.00
2023-04-07T01:02:25.441Z,0.00
2023-04-07T01:03:25.460Z,0.00
2023-04-07T01:04:25.431Z,0.00
2023-04-07T01:05:25.272Z,0.00
2023-04-07T01:06:25.268Z,0.00
2023-04-07T01:07:25.263Z,0.00
2023-04-07T01:08:25.269Z,0.00
2023-04-07T01:09:25.231Z,0.00
2023-04-07T01:10:25.220Z,0.00
2023-04-07T01:11:25.229Z,0.00
2023-04-07T01:12:25.210Z,0.00
2023-04-07T01:13:25.213Z,0.00
2023-04-07T01:14:25.183Z,0.00
2023-04-07T01:15:25.180Z,0.00
2023-04-07T01:16:25.198Z,0.00
2023-04-07T01:17:25.156Z,0.00
2023-04-07T01:18:25.191Z,0.00
2023-04-07T01:19:25.127Z,0.00
2023-04-07T01:20:25.119Z,0.00
2023-04-07T01:21:25.106Z,0.00
2023-04-07T01:22:25.101Z,0.00
2023-04-07T01:23:25.104Z,0.00
2023-04-07T01:24:25.087Z,0.00
2023-04-07T01:25:25.064Z,0.00
2023-04-07T01:26:25.060Z,0.00
2023-04-07T01:27:25.044Z,0.00
2023-04-07T01:28:25.051Z,0.00
2023-04-07T01:29:25.022Z,0.00
2023-04-07T01:30:25.021Z,0.00
2023-04-07T01:31:25.060Z,0.00
2023-04-07T01:32:25.071Z,0.00
2023-04-07T01:33:24.993Z,0.00
2023-04-07T01:34:24.965Z,0.00
2023-04-07T01:35:24.949Z,0.00
2023-04-07T01:36:24.951Z,0.00
2023-04-07T01:37:24.996Z,0.00
2023-04-07T01:38:24.941Z,0.00
2023-04-07T01:39:24.919Z,0.00
2023-04-07T01:40:24.913Z,0.00
2023-04-07T01:41:24.901Z,0.00
2023-04-07T01:42:24.890Z,0.00
2023-04-07T01:43:24.889Z,0.00
2023-04-07T01:44:24.884Z,0.00
2023-04-07T01:45:24.857Z,0.00
2023-04-07T01:46:24.871Z,0.00
2023-04-07T01:47:24.870Z,0.00
2023-04-07T01:48:24.856Z,0.00
2023-04-07T01:49:24.814Z,0.00
2023-04-07T01:50:24.806Z,0.00
2023-04-07T01:51:24.793Z,0.00
2023-04-07T01:52:24.790Z,0.00
2023-04-07T01:53:24.789Z,0.00
2023-04-07T01:54:24.767Z,0.00
2023-04-07T01:55:24.753Z,0.00
2023-04-07T01:56:24.742Z,0.00
2023-04-07T01:57:24.729Z,0.00
2023-04-07T01:58:24.738Z,0.00
2023-04-07T01:59:24.708Z,0.00
2023-04-07T02:00:24.706Z,0.00
2023-04-07T02:01:24.771Z,0.00
2023-04-07T02:02:24.757Z,0.00
2023-04-07T02:03:24.773Z,0.00
2023-04-07T02:04:24.669Z,0.00
2023-04-07T02:05:24.649Z,0.00
2023-04-07T02:06:24.644Z,0.00
2023-04-07T02:07:24.631Z,0.00
2023-04-07T02:08:24.648Z,0.00
2023-04-07T02:09:24.614Z,0.00
2023-04-07T02:10:24.601Z,0.00
2023-04-07T02:11:24.588Z,0.00
2023-04-07T02:12:24.590Z,0.00
2023-04-07T02:13:24.572Z,0.00
2023-04-07T02:14:24.584Z,0.00
2023-04-07T02:15:24.548Z,0.00
2023-04-07T02:16:24.575Z,0.00
2023-04-07T02:17:24.616Z,0.00
2023-04-07T02:18:24.522Z,0.00
2023-04-07T02:19:24.498Z,0.00
2023-04-07T02:20:24.511Z,0.00
2023-04-07T02:21:24.485Z,0.00
2023-04-07T02:22:24.498Z,0.00
2023-04-07T02:23:24.490Z,0.00
2023-04-07T02:24:24.453Z,0.00
2023-04-07T02:25:24.442Z,0.00
2023-04-07T02:26:24.430Z,0.00
2023-04-07T02:27:24.439Z,0.00
2023-04-07T02:28:24.612Z,0.00
2023-04-07T02:29:24.420Z,0.00
2023-04-07T02:30:24.391Z,0.00
2023-04-07T02:31:24.400Z,0.00
2023-04-07T02:32:24.591Z,0.00
2023-04-07T02:33:24.360Z,0.00
2023-04-07T02:34:24.352Z,0.00
2023-04-07T02:35:24.328Z,0.00
2023-04-07T02:36:24.333Z,0.00
2023-04-07T02:37:24.312Z,0.00
2023-04-07T02:38:24.312Z,0.00
2023-04-07T02:39:24.286Z,0.00
2023-04-07T02:40:24.282Z,0.00
2023-04-07T02:41:24.263Z,0.00
2023-04-07T02:42:24.270Z,0.00
2023-04-07T02:43:24.257Z,0.00
2023-04-07T02:44:24.241Z,0.00
2023-04-07T02:45:24.227Z,0.00
2023-04-07T02:46:24.274Z,0.00
2023-04-07T02:47:24.259Z,0.00
2023-04-07T02:48:24.207Z,0.00
2023-04-07T02:49:24.180Z,0.00
2023-04-07T02:50:24.216Z,0.00
2023-04-07T02:51:24.158Z,0.00
2023-04-07T02:52:24.154Z,0.00
2023-04-07T02:53:24.174Z,0.00
2023-04-07T02:54:24.127Z,0.00
2023-04-07T02:55:24.139Z,0.00
2023-04-07T02:56:24.112Z,0.00
2023-04-07T02:57:24.100Z,0.00
2023-04-07T02:58:24.133Z,0.00
2023-04-07T02:59:24.111Z,0.00
2023-04-07T03:00:24.075Z,0.00
2023-04-07T03:01:24.100Z,0.00
2023-04-07T03:02:24.126Z,0.00
2023-04-07T03:03:24.223Z,0.00
2023-04-07T03:04:24.083Z,0.00
2023-04-07T03:05:24.022Z,0.00
2023-04-07T03:06:24.013Z,0.00
2023-04-07T03:07:23.989Z,0.00
2023-04-07T03:08:24.001Z,0.00
2023-04-07T03:09:23.967Z,0.00
2023-04-07T03:10:23.972Z,0.00
2023-04-07T03:11:23.961Z,0.00
2023-04-07T03:12:23.940Z,0.00
2023-04-07T03:13:23.936Z,0.00
2023-04-07T03:14:23.917Z,0.00
2023-04-07T03:15:23.901Z,0.00
2023-04-07T03:16:23.925Z,0.00
2023-04-07T03:17:23.918Z,0.00
2023-04-07T03:18:23.889Z,0.00
2023-04-07T03:19:23.873Z,0.00
2023-04-07T03:20:23.868Z,0.00
2023-04-07T03:21:23.845Z,0.00
2023-04-07T03:22:23.841Z,0.00
2023-04-07T03:23:23.848Z,0.00
2023-04-07T03:24:23.806Z,0.00
2023-04-07T03:25:23.835Z,0.00
2023-04-07T03:26:23.805Z,0.00
2023-04-07T03:27:23.802Z,0.00
2023-04-07T03:28:23.787Z,0.00
2023-04-07T03:29:23.756Z,0.00
2023-04-07T03:30:23.767Z,0.00
2023-04-07T03:31:23.832Z,0.00
2023-04-07T03:32:23.758Z,0.00
2023-04-07T03:33:23.733Z,0.00
2023-04-07T03:34:23.706Z,0.00
2023-04-07T03:35:23.707Z,0.00
2023-04-07T03:36:23.743Z,0.00
2023-04-07T03:37:23.667Z,0.00
2023-04-07T03:38:23.677Z,0.00
2023-04-07T03:39:23.694Z,0.00
2023-04-07T03:40:23.644Z,0.00
2023-04-07T03:41:23.633Z,0.00
2023-04-07T03:42:23.632Z,0.00
2023-04-07T03:43:23.628Z,0.00
2023-04-07T03:44:23.598Z,0.00
2023-04-07T03:45:23.614Z,0.00
2023-04-07T03:46:23.609Z,0.00
2023-04-07T03:47:23.556Z,0.00
2023-04-07T03:48:23.587Z,0.00
2023-04-07T03:49:23.535Z,0.00
2023-04-07T03:50:23.533Z,0.00
2023-04-07T03:51:23.512Z,0.00
2023-04-07T03:52:23.509Z,0.00
2023-04-07T03:53:23.541Z,0.00
2023-04-07T03:54:23.491Z,0.00
2023-04-07T03:55:23.471Z,0.00
2023-04-07T03:56:23.466Z,0.00
2023-04-07T03:57:23.451Z,0.00
2023-04-07T03:58:23.469Z,0.00
2023-04-07T03:59:23.435Z,0.00
2023-04-07T04:00:23.425Z,0.00
2023-04-07T04:01:23.414Z,0.00
2023-04-07T04:02:23.529Z,0.00
2023-04-07T04:03:23.521Z,0.00
2023-04-07T04:04:23.398Z,0.00
2023-04-07T04:05:23.367Z,0.00
2023-04-07T04:06:23.408Z,0.00
2023-04-07T04:07:23.340Z,0.00
2023-04-07T04:08:23.352Z,0.00
2023-04-07T04:09:23.329Z,0.00
2023-04-07T04:10:23.324Z,0.00
2023-04-07T04:11:23.303Z,0.00
2023-04-07T04:12:23.298Z,0.00
2023-04-07T04:13:23.292Z,0.00
2023-04-07T04:14:23.282Z,0.00
2023-04-07T04:15:23.262Z,0.00
2023-04-07T04:16:23.264Z,0.00
2023-04-07T04:17:23.262Z,0.00
2023-04-07T04:18:23.248Z,0.00
2023-04-07T04:19:23.220Z,0.00
2023-04-07T04:20:23.224Z,0.00
2023-04-07T04:21:23.206Z,0.00
2023-04-07T04:22:23.180Z,0.00
2023-04-07T04:23:23.197Z,0.00
2023-04-07T04:24:23.211Z,0.00
2023-04-07T04:25:23.164Z,0.00
2023-04-07T04:26:29.143Z,0.00
2023-04-07T04:27:23.134Z,0.00
2023-04-07T04:28:23.077Z,1.00
2023-04-07T04:29:23.060Z,1.00
2023-04-07T04:30:23.082Z,1.00
2023-04-07T04:31:23.084Z,2.00
2023-04-07T04:32:23.051Z,2.00
2023-04-07T04:33:23.029Z,2.00
2023-04-07T04:34:23.000Z,3.00
2023-04-07T04:35:22.996Z,3.00
2023-04-07T04:36:23.025Z,4.00
2023-04-07T04:37:22.972Z,3.00
2023-04-07T04:38:22.983Z,7.00
2023-04-07T04:39:22.963Z,6.00
2023-04-07T04:40:22.935Z,5.00
2023-04-07T04:41:22.952Z,6.00
2023-04-07T04:42:22.919Z,11.00
2023-04-07T04:43:22.921Z,12.00
2023-04-07T04:44:22.888Z,12.00
2023-04-07T04:45:22.880Z,17.00
2023-04-07T04:46:22.872Z,17.00
2023-04-07T04:47:22.878Z,19.00
2023-04-07T04:48:22.859Z,20.00
2023-04-07T04:49:22.841Z,23.00
2023-04-07T04:50:22.832Z,25.00
2023-04-07T04:51:22.829Z,26.00
2023-04-07T04:52:22.813Z,27.00
2023-04-07T04:53:22.817Z,29.00
2023-04-07T04:54:22.792Z,34.00
2023-04-07T04:55:22.793Z,37.00
2023-04-07T04:56:22.760Z,42.00
2023-04-07T04:57:22.757Z,45.00
2023-04-07T04:58:22.755Z,48.00
2023-04-07T04:59:22.749Z,53.00
2023-04-07T05:00:22.726Z,57.00
2023-04-07T05:01:22.828Z,61.00
2023-04-07T05:02:22.921Z,67.00
2023-04-07T05:03:22.940Z,73.00
2023-04-07T05:04:22.859Z,76.00
2023-04-07T05:05:22.668Z,81.00
2023-04-07T05:06:22.671Z,85.00
2023-04-07T05:07:22.681Z,90.00
2023-04-07T05:08:22.678Z,94.00
2023-04-07T05:09:22.622Z,98.00
2023-04-07T05:10:22.610Z,102.00
2023-04-07T05:11:22.608Z,104.00
2023-04-07T05:12:22.592Z,107.00
2023-04-07T05:13:22.598Z,111.00
2023-04-07T05:14:22.567Z,116.00
2023-04-07T05:15:22.563Z,119.00
2023-04-07T05:16:22.645Z,125.00
2023-04-07T05:17:22.550Z,132.00
2023-04-07T05:18:22.540Z,142.00
2023-04-07T05:19:22.520Z,153.00
2023-04-07T05:20:22.506Z,160.00
2023-04-07T05:21:22.507Z,169.00
2023-04-07T05:22:22.484Z,177.00
2023-04-07T05:23:22.487Z,184.00
2023-04-07T05:24:22.468Z,182.00
2023-04-07T05:25:22.593Z,192.00
2023-04-07T05:26:22.452Z,203.00
2023-04-07T05:27:22.433Z,218.00
2023-04-07T05:28:22.437Z,238.00
2023-04-07T05:29:22.405Z,254.00
2023-04-07T05:30:22.408Z,268.00
2023-04-07T05:31:22.414Z,271.00
2023-04-07T05:32:22.401Z,284.00
2023-04-07T05:33:22.382Z,289.00
2023-04-07T05:34:22.371Z,300.00
2023-04-07T05:35:22.346Z,305.00
2023-04-07T05:36:22.344Z,311.00
2023-04-07T05:37:22.334Z,316.00
2023-04-07T05:38:22.321Z,327.00
2023-04-07T05:39:22.332Z,344.00
2023-04-07T05:40:22.290Z,351.00
2023-04-07T05:41:22.280Z,364.00
2023-04-07T05:42:22.284Z,373.00
2023-04-07T05:43:22.292Z,377.00
2023-04-07T05:44:22.252Z,382.00
2023-04-07T05:45:22.315Z,385.00
2023-04-07T05:46:22.251Z,400.00
2023-04-07T05:47:22.280Z,412.00
2023-04-07T05:48:22.223Z,425.00
2023-04-07T05:49:22.190Z,443.00
2023-04-07T05:50:22.184Z,460.00
2023-04-07T05:51:22.173Z,477.00
2023-04-07T05:52:22.170Z,494.00
2023-04-07T05:53:22.156Z,513.00
2023-04-07T05:54:22.139Z,526.00
2023-04-07T05:55:22.141Z,542.00
2023-04-07T05:56:22.114Z,549.00
2023-04-07T05:57:22.171Z,573.00
2023-04-07T05:58:22.093Z,586.00
2023-04-07T05:59:22.099Z,604.00
2023-04-07T06:00:22.081Z,620.00
2023-04-07T06:01:22.091Z,643.00
2023-04-07T06:02:22.366Z,653.00
2023-04-07T06:03:22.126Z,679.00
2023-04-07T06:04:22.033Z,704.00
2023-04-07T06:05:22.076Z,732.00
2023-04-07T06:06:22.015Z,748.00
2023-04-07T06:07:22.023Z,762.00
2023-04-07T06:08:22.012Z,780.00
2023-04-07T06:09:21.990Z,798.00
2023-04-07T06:10:21.978Z,819.00
2023-04-07T06:11:21.962Z,844.00
2023-04-07T06:12:21.997Z,869.00
2023-04-07T06:13:21.936Z,901.00
2023-04-07T06:14:21.928Z,932.00
2023-04-07T06:15:21.928Z,952.00
2023-04-07T06:16:21.916Z,971.00
2023-04-07T06:17:21.935Z,994.00
2023-04-07T06:18:21.881Z,1015.00
2023-04-07T06:19:21.879Z,1041.00
2023-04-07T06:20:21.894Z,1071.00
2023-04-07T06:21:21.861Z,1123.00
2023-04-07T06:22:21.851Z,1167.00
2023-04-07T06:23:21.829Z,1215.00
2023-04-07T06:24:21.819Z,1265.00
2023-04-07T06:25:21.811Z,1318.00
2023-04-07T06:26:21.797Z,1359.00
2023-04-07T06:27:21.812Z,1390.00
2023-04-07T06:28:21.772Z,1413.00
2023-04-07T06:29:21.772Z,1453.00
2023-04-07T06:30:21.764Z,1503.00
2023-04-07T06:31:21.787Z,1543.00
2023-04-07T06:32:21.798Z,1596.00
2023-04-07T06:33:21.737Z,1650.00
2023-04-07T06:34:21.711Z,1676.00
2023-04-07T06:35:21.726Z,1687.00
2023-04-07T06:36:21.800Z,1702.00
2023-04-07T06:37:21.696Z,1741.00
2023-04-07T06:38:21.723Z,1781.00
2023-04-07T06:39:21.727Z,1852.00
2023-04-07T06:40:21.663Z,1946.00
2023-04-07T06:41:21.633Z,2029.00
2023-04-07T06:42:21.636Z,2093.00
2023-04-07T06:43:21.614Z,2136.00
2023-04-07T06:44:21.596Z,2137.00
2023-04-07T06:45:21.595Z,2136.00
2023-04-07T06:46:21.615Z,2128.00
2023-04-07T06:47:21.585Z,2140.00
2023-04-07T06:48:21.561Z,2232.00
2023-04-07T06:49:21.565Z,2290.00
2023-04-07T06:50:21.651Z,2405.00
2023-04-07T06:51:21.534Z,2526.00
2023-04-07T06:52:21.528Z,2622.00
2023-04-07T06:53:21.512Z,2683.00
2023-04-07T06:54:21.495Z,2681.00
2023-04-07T06:55:21.484Z,2703.00
2023-04-07T06:56:21.467Z,2707.00
2023-04-07T06:57:21.474Z,2724.00
2023-04-07T06:58:21.454Z,2729.00
2023-04-07T06:59:21.443Z,2749.00
2023-04-07T07:00:21.439Z,2776.00
2023-04-07T07:01:21.461Z,2806.00
2023-04-07T07:02:21.527Z,2861.00
2023-04-07T07:03:21.616Z,2908.00
2023-04-07T07:04:21.596Z,2926.00
2023-04-07T07:05:21.407Z,2960.00
2023-04-07T07:06:21.398Z,3000.00
2023-04-07T07:07:21.465Z,3061.00
2023-04-07T07:08:21.340Z,3144.00
2023-04-07T07:09:21.449Z,3236.00
2023-04-07T07:10:21.350Z,3365.00
2023-04-07T07:11:21.334Z,3484.00
2023-04-07T07:12:21.323Z,3574.00
2023-04-07T07:13:21.293Z,3639.00
2023-04-07T07:14:21.282Z,3726.00
2023-04-07T07:15:21.273Z,3769.00
2023-04-07T07:16:21.255Z,3717.00
2023-04-07T07:17:21.295Z,3885.00
2023-04-07T07:18:21.238Z,3965.00
2023-04-07T07:19:21.233Z,3852.00
2023-04-07T07:20:21.212Z,3736.00
2023-04-07T07:21:21.217Z,3673.00
2023-04-07T07:22:21.281Z,3667.00
2023-04-07T07:23:21.188Z,3588.00
2023-04-07T07:24:21.208Z,4080.00
2023-04-07T07:25:21.177Z,3616.00
2023-04-07T07:26:21.148Z,3466.00
2023-04-07T07:27:21.170Z,3488.00
2023-04-07T07:28:21.135Z,3404.00
2023-04-07T07:29:21.129Z,3414.00
2023-04-07T07:30:21.116Z,3399.00
2023-04-07T07:31:21.164Z,3494.00
2023-04-07T07:32:21.131Z,3613.00
2023-04-07T07:33:21.124Z,3744.00
2023-04-07T07:34:21.063Z,3866.00
2023-04-07T07:35:21.060Z,3931.00
2023-04-07T07:36:21.094Z,4056.00
2023-04-07T07:37:21.055Z,3398.00
2023-04-07T07:38:21.026Z,4694.00
2023-04-07T07:39:21.020Z,1785.00
2023-04-07T07:40:22.705Z,9426.00
2023-04-07T07:41:21.005Z,7170.00
2023-04-07T07:42:20.994Z,4213.00
2023-04-07T07:43:20.973Z,5367.00
2023-04-07T07:44:20.976Z,4380.00
2023-04-07T07:45:20.963Z,3095.00
2023-04-07T07:46:21.062Z,3184.00
2023-04-07T07:47:20.992Z,5943.00
2023-04-07T07:48:20.922Z,6958.00
2023-04-07T07:49:20.915Z,7389.00
2023-04-07T07:50:20.896Z,7495.00
2023-04-07T07:51:20.894Z,7895.00
2023-04-07T07:52:20.938Z,7306.00
2023-04-07T07:53:20.867Z,6026.00
2023-04-07T07:54:20.853Z,7186.00
2023-04-07T07:55:20.858Z,7158.00
2023-04-07T07:56:20.840Z,7159.00
2023-04-07T07:57:20.837Z,7160.00
2023-04-07T07:58:20.820Z,7161.00
2023-04-07T07:59:20.828Z,7184.00
2023-04-07T08:00:20.806Z,7018.00
2023-04-07T08:01:20.783Z,7016.00
2023-04-07T08:02:20.861Z,6987.00
2023-04-07T08:03:20.830Z,6926.00
2023-04-07T08:04:20.879Z,6892.00
2023-04-07T08:05:20.745Z,6878.00
2023-04-07T08:06:20.724Z,6833.00
2023-04-07T08:07:20.737Z,6802.00
2023-04-07T08:08:20.722Z,6815.00
2023-04-07T08:09:20.720Z,6821.00
2023-04-07T08:10:20.688Z,6786.00
2023-04-07T08:11:20.677Z,6754.00
2023-04-07T08:12:20.678Z,6768.00
2023-04-07T08:13:20.659Z,6682.00
2023-04-07T08:14:20.643Z,6646.00
2023-04-07T08:15:20.635Z,6758.00
2023-04-07T08:16:20.676Z,6916.00
2023-04-07T08:17:20.633Z,6862.00
2023-04-07T08:18:20.609Z,6732.00
2023-04-07T08:19:20.625Z,6835.00
2023-04-07T08:20:20.578Z,6778.00
2023-04-07T08:21:20.574Z,7368.00
2023-04-07T08:22:20.574Z,7786.00
2023-04-07T08:23:20.560Z,10086.00
2023-04-07T08:24:20.539Z,7219.00
2023-04-07T08:25:20.579Z,3963.00
2023-04-07T08:26:20.519Z,7094.00
2023-04-07T08:27:20.535Z,8199.00
2023-04-07T08:28:20.499Z,8110.00
2023-04-07T08:29:20.488Z,8073.00
2023-04-07T08:30:20.480Z,8083.00
2023-04-07T08:31:20.523Z,7806.00
2023-04-07T08:32:20.492Z,8280.00
2023-04-07T08:33:20.442Z,7378.00
2023-04-07T08:34:20.436Z,7695.00
2023-04-07T08:35:20.418Z,8074.00
2023-04-07T08:36:20.427Z,8025.00
2023-04-07T08:37:20.516Z,7823.00
2023-04-07T08:38:20.389Z,4604.00
2023-04-07T08:39:20.375Z,3886.00
2023-04-07T08:40:20.369Z,3740.00
2023-04-07T08:41:20.355Z,3812.00
2023-04-07T08:42:20.371Z,3976.00
2023-04-07T08:43:20.335Z,4001.00
2023-04-07T08:44:20.329Z,4180.00
2023-04-07T08:45:20.312Z,4297.00
2023-04-07T08:46:20.311Z,4573.00
2023-04-07T08:47:20.323Z,4606.00
2023-04-07T08:48:20.292Z,4211.00
2023-04-07T08:49:20.270Z,5219.00
2023-04-07T08:50:20.264Z,5516.00
2023-04-07T08:51:20.245Z,4531.00
2023-04-07T08:52:20.262Z,3158.00
2023-04-07T08:53:20.227Z,5770.00
2023-04-07T08:54:20.225Z,6201.00
2023-04-07T08:55:20.239Z,4758.00
2023-04-07T08:56:20.203Z,4680.00
2023-04-07T08:57:20.196Z,4920.00
2023-04-07T08:58:20.197Z,5492.00
2023-04-07T08:59:20.170Z,4406.00
2023-04-07T09:00:20.168Z,6905.00
2023-04-07T09:01:20.205Z,4743.00
2023-04-07T09:02:20.300Z,1706.00
2023-04-07T09:03:20.155Z,8430.00
2023-04-07T09:04:20.308Z,7890.00
2023-04-07T09:05:20.102Z,4999.00
2023-04-07T09:06:20.096Z,5068.00
2023-04-07T09:07:20.101Z,5058.00
2023-04-07T09:08:20.071Z,4917.00
2023-04-07T09:09:20.057Z,5055.00
2023-04-07T09:10:20.066Z,5065.00
2023-04-07T09:11:20.059Z,5128.00
2023-04-07T09:12:20.047Z,5821.00
2023-04-07T09:13:20.039Z,7870.00
2023-04-07T09:14:20.008Z,7443.00
2023-04-07T09:15:19.992Z,7112.00
2023-04-07T09:16:20.004Z,7244.00
2023-04-07T09:17:19.989Z,7943.00
2023-04-07T09:18:19.985Z,8919.00
2023-04-07T09:19:19.952Z,5924.00
2023-04-07T09:20:19.968Z,5354.00
2023-04-07T09:21:19.956Z,4934.00
2023-04-07T09:22:19.943Z,3239.00
2023-04-07T09:23:19.917Z,6269.00
2023-04-07T09:24:19.909Z,6599.00
2023-04-07T09:25:19.891Z,6593.00
2023-04-07T09:26:19.887Z,7083.00
2023-04-07T09:27:19.885Z,7375.00
2023-04-07T09:28:19.860Z,8808.00
2023-04-07T09:29:19.848Z,7823.00
2023-04-07T09:30:19.838Z,5706.00
2023-04-07T09:31:19.863Z,4116.00
2023-04-07T09:32:19.825Z,5419.00
2023-04-07T09:33:19.801Z,7439.00
2023-04-07T09:34:19.813Z,7834.00
2023-04-07T09:35:19.799Z,7913.00
2023-04-07T09:36:19.778Z,7736.00
2023-04-07T09:37:19.769Z,7499.00
2023-04-07T09:38:19.749Z,7773.00
2023-04-07T09:39:19.759Z,9806.00
2023-04-07T09:40:19.731Z,7576.00
2023-04-07T09:41:19.735Z,3986.00
2023-04-07T09:42:19.719Z,7811.00
2023-04-07T09:43:19.701Z,9276.00
2023-04-07T09:44:19.693Z,9947.00
2023-04-07T09:45:30.859Z,6023.00
2023-04-07T09:46:19.730Z,6754.00
2023-04-07T09:47:19.686Z,8203.00
2023-04-07T09:48:19.648Z,3873.00
2023-04-07T09:49:19.632Z,7792.00
2023-04-07T09:50:19.639Z,5242.00
2023-04-07T09:51:19.608Z,5211.00
2023-04-07T09:52:19.618Z,5265.00
2023-04-07T09:53:19.590Z,4703.00
2023-04-07T09:54:19.582Z,4679.00
2023-04-07T09:55:19.603Z,4593.00
2023-04-07T09:56:19.560Z,4620.00
2023-04-07T09:57:19.672Z,4406.00
2023-04-07T09:58:19.565Z,4210.00
2023-04-07T09:59:19.532Z,3990.00
2023-04-07T10:00:19.550Z,4059.00
2023-04-07T10:01:19.576Z,4038.00
2023-04-07T10:02:19.607Z,3872.00
2023-04-07T10:03:19.586Z,5695.00
2023-04-07T10:04:19.533Z,3270.00
2023-04-07T10:05:19.464Z,8320.00
2023-04-07T10:06:19.504Z,5330.00
2023-04-07T10:07:19.465Z,5311.00
2023-04-07T10:08:19.440Z,5138.00
2023-04-07T10:09:19.434Z,5324.00
2023-04-07T10:10:19.462Z,5251.00
2023-04-07T10:11:19.445Z,5328.00
2023-04-07T10:12:19.476Z,5423.00
2023-04-07T10:13:19.402Z,5251.00
2023-04-07T10:14:19.380Z,4957.00
2023-04-07T10:15:19.409Z,4505.00
2023-04-07T10:16:19.399Z,3921.00
2023-04-07T10:17:19.400Z,3150.00
2023-04-07T10:18:19.339Z,2302.00
2023-04-07T10:19:19.319Z,1775.00
2023-04-07T10:20:19.379Z,1338.00
2023-04-07T10:21:19.298Z,1146.00
2023-04-07T10:22:19.315Z,1037.00
2023-04-07T10:23:19.294Z,1015.00
2023-04-07T10:24:19.271Z,997.00
2023-04-07T10:25:19.252Z,962.00
2023-04-07T10:26:19.317Z,946.00
2023-04-07T10:27:25.263Z,960.00
2023-04-07T10:28:19.245Z,959.00
2023-04-07T10:29:19.221Z,963.00
2023-04-07T10:30:19.283Z,986.00
2023-04-07T10:31:19.318Z,1009.00
2023-04-07T10:32:19.213Z,1039.00
2023-04-07T10:33:19.196Z,1087.00
2023-04-07T10:34:19.191Z,1138.00
2023-04-07T10:35:19.275Z,1193.00
2023-04-07T10:36:19.200Z,1252.00
2023-04-07T10:37:19.185Z,1275.00
2023-04-07T10:38:19.220Z,1353.00
2023-04-07T10:39:19.156Z,1384.00
2023-04-07T10:40:19.325Z,1405.00
2023-04-07T10:41:19.100Z,1447.00
2023-04-07T10:42:19.114Z,1505.00
2023-04-07T10:43:20.110Z,1563.00
2023-04-07T10:44:19.108Z,1603.00
2023-04-07T10:45:19.097Z,1686.00
2023-04-07T10:46:19.104Z,1742.00
2023-04-07T10:47:19.050Z,1790.00
2023-04-07T10:48:19.043Z,1845.00
2023-04-07T10:49:19.295Z,1942.00
2023-04-07T10:50:19.012Z,2073.00
2023-04-07T10:51:19.018Z,2207.00
2023-04-07T10:52:18.997Z,2368.00
2023-04-07T10:53:18.967Z,2519.00
2023-04-07T10:54:18.969Z,2610.00
2023-04-07T10:55:18.942Z,2687.00
2023-04-07T10:56:18.941Z,2771.00
2023-04-07T10:57:18.956Z,2888.00
2023-04-07T10:58:18.919Z,2986.00
2023-04-07T10:59:18.920Z,3057.00
2023-04-07T11:00:18.916Z,3075.00
2023-04-07T11:01:18.966Z,3023.00
2023-04-07T11:02:19.034Z,2863.00
2023-04-07T11:03:19.013Z,2608.00
2023-04-07T11:04:19.002Z,2288.00
2023-04-07T11:05:18.840Z,2023.00
2023-04-07T11:06:18.826Z,1805.00
2023-04-07T11:07:18.828Z,1622.00
2023-04-07T11:08:18.808Z,1461.00
2023-04-07T11:09:18.790Z,1299.00
2023-04-07T11:10:18.786Z,1165.00
2023-04-07T11:11:18.775Z,1048.00
2023-04-07T11:12:18.783Z,964.00
2023-04-07T11:13:18.753Z,950.00
2023-04-07T11:14:18.760Z,966.00
2023-04-07T11:15:18.745Z,1013.00
2023-04-07T11:16:18.862Z,1053.00
2023-04-07T11:17:18.719Z,1091.00
2023-04-07T11:18:18.720Z,1079.00
2023-04-07T11:19:18.686Z,1054.00
2023-04-07T11:20:18.688Z,1059.00
2023-04-07T11:21:18.691Z,1034.00
2023-04-07T11:23:18.649Z,995.00
2023-04-07T11:24:18.643Z,993.00
2023-04-07T11:25:18.637Z,977.00
2023-04-07T11:26:18.617Z,998.00
2023-04-07T11:27:18.620Z,1045.00
2023-04-07T11:28:18.621Z,1074.00
2023-04-07T11:29:18.583Z,1110.00
2023-04-07T11:30:18.590Z,1175.00
2023-04-07T11:31:18.583Z,1255.00
2023-04-07T11:32:18.577Z,1341.00
2023-04-07T11:33:18.566Z,1419.00
2023-04-07T11:34:18.547Z,1486.00
2023-04-07T11:35:18.539Z,1519.00
2023-04-07T11:36:18.545Z,1557.00
2023-04-07T11:37:18.516Z,1584.00
2023-04-07T11:38:18.545Z,1665.00
2023-04-07T11:39:18.476Z,1712.00
2023-04-07T11:40:18.485Z,1777.00
2023-04-07T11:41:18.458Z,1774.00
2023-04-07T11:42:18.461Z,1787.00
2023-04-07T11:43:18.438Z,1768.00
2023-04-07T11:44:18.484Z,1766.00
2023-04-07T11:45:18.432Z,1778.00
2023-04-07T11:46:18.491Z,1757.00
2023-04-07T11:47:18.421Z,1710.00
2023-04-07T11:48:18.391Z,1653.00
2023-04-07T11:49:18.385Z,1602.00
2023-04-07T11:50:18.378Z,1533.00
2023-04-07T11:51:18.397Z,1438.00
2023-04-07T11:52:18.432Z,1372.00
2023-04-07T11:53:18.331Z,1320.00
2023-04-07T11:54:18.324Z,1230.00
2023-04-07T11:55:20.219Z,1139.00
2023-04-07T11:56:18.306Z,1146.00
2023-04-07T11:57:18.317Z,1130.00
2023-04-07T11:58:18.299Z,1146.00
2023-04-07T11:59:18.270Z,1182.00
2023-04-07T12:00:18.258Z,1234.00
2023-04-07T12:01:18.247Z,1295.00
2023-04-07T12:02:18.352Z,1352.00
2023-04-07T12:03:18.494Z,1392.00
2023-04-07T12:04:18.385Z,1402.00
2023-04-07T12:05:18.262Z,1436.00
2023-04-07T12:06:18.197Z,1480.00
2023-04-07T12:07:18.196Z,1519.00
2023-04-07T12:08:18.182Z,1585.00
2023-04-07T12:09:18.166Z,1674.00
2023-04-07T12:10:18.189Z,1763.00
2023-04-07T12:11:18.156Z,1871.00
2023-04-07T12:12:18.152Z,1940.00
2023-04-07T12:13:18.123Z,2022.00
2023-04-07T12:14:18.125Z,2125.00
2023-04-07T12:15:18.102Z,2242.00
2023-04-07T12:16:18.144Z,2347.00
2023-04-07T12:17:18.150Z,2437.00
2023-04-07T12:18:18.070Z,2516.00
2023-04-07T12:19:18.056Z,2585.00
2023-04-07T12:20:18.056Z,2633.00
2023-04-07T12:21:18.037Z,2672.00
2023-04-07T12:22:18.043Z,2686.00
2023-04-07T12:23:18.019Z,2675.00
2023-04-07T12:24:18.013Z,2669.00
2023-04-07T12:25:17.995Z,2698.00
2023-04-07T12:26:17.988Z,2712.00
2023-04-07T12:27:18.005Z,2713.00
2023-04-07T12:28:17.979Z,2729.00
2023-04-07T12:29:17.958Z,2689.00
2023-04-07T12:30:17.951Z,2671.00
2023-04-07T12:31:17.955Z,2595.00
2023-04-07T12:32:17.978Z,2538.00
2023-04-07T12:33:17.915Z,2478.00
2023-04-07T12:34:17.916Z,2386.00
2023-04-07T12:35:17.897Z,2284.00
2023-04-07T12:36:17.894Z,2184.00